Time;durP1;ratioP1;P1;durP2;ratioP2;P2;SDS_P1;SDS_P2;PMS_P1;PMS_P2;Temp;Humidity;BMP_temperature;BMP_pressure;BME280_temperature;BME280_humidity;BME280_pressure;Samples;Min_cycle;Max_cycle;Signal;HPM_P1;HPM_P2
2022/11/20 00:01:25;;;;;;;28.40;15.30;;;;;;;-1.53;72.22;100543.31;4974901;28;20045;-71
2022/11/20 00:03:53;;;;;;;30.40;15.80;;;;;;;-1.55;72.51;100530.22;4975304;28;20053;-69
2022/11/20 00:06:21;;;;;;;25.88;14.90;;;;;;;-1.44;72.20;100535.75;4975841;28;20046;-69
2022/11/20 00:08:48;;;;;;;31.55;14.30;;;;;;;-1.58;72.47;100535.66;4975847;28;20047;-70
2022/11/20 00:11:20;;;;;;;24.63;15.18;;;;;;;-1.35;71.86;100530.88;4975821;28;20397;-71
2022/11/20 00:13:48;;;;;;;24.00;14.15;;;;;;;-1.51;71.68;100526.47;4975198;28;20483;-69
2022/11/20 00:16:18;;;;;;;29.27;14.23;;;;;;;-1.51;72.00;100529.13;4975314;28;20054;-71
2022/11/20 00:18:45;;;;;;;27.27;15.48;;;;;;;-1.43;71.53;100526.06;4956324;28;20043;-69
2022/11/20 00:21:17;;;;;;;25.52;14.52;;;;;;;-1.39;71.59;100533.69;4955782;28;20054;-70
2022/11/20 00:23:43;;;;;;;28.48;14.52;;;;;;;-1.51;71.29;100529.13;4956404;28;20408;-70
2022/11/20 00:26:13;;;;;;;26.33;15.25;;;;;;;-1.45;71.33;100523.50;4955652;28;20043;-69
2022/11/20 00:28:40;;;;;;;27.73;14.80;;;;;;;-1.31;70.91;100524.50;4955904;28;20049;-71
2022/11/20 00:31:15;;;;;;;29.75;13.90;;;;;;;-1.31;70.87;100522.72;4956267;28;20043;-71
2022/11/20 00:33:43;;;;;;;24.67;14.23;;;;;;;-1.48;71.11;100534.19;4955436;28;20058;-71
2022/11/20 00:36:12;;;;;;;26.50;14.38;;;;;;;-1.30;70.53;100520.91;4956483;28;20047;-71
2022/11/20 00:38:39;;;;;;;29.60;16.08;;;;;;;-1.37;71.20;100530.94;4948430;28;20043;-69
2022/11/20 00:41:09;;;;;;;25.55;14.27;;;;;;;-1.42;70.67;100530.38;4955807;28;20046;-70
2022/11/20 00:43:36;;;;;;;26.35;14.65;;;;;;;-1.20;70.58;100530.81;4955883;28;20057;-70
2022/11/20 00:46:08;;;;;;;26.75;14.90;;;;;;;-1.25;70.56;100539.94;4954692;28;20051;-69
2022/11/20 00:48:35;;;;;;;29.02;15.18;;;;;;;-1.18;70.50;100530.75;4948371;28;20050;-69
2022/11/20 00:51:02;;;;;;;27.27;14.57;;;;;;;-1.20;70.28;100528.19;4937029;28;20059;-71
2022/11/20 00:53:28;;;;;;;28.25;14.63;;;;;;;-1.29;70.42;100533.16;4937026;28;20058;-69
2022/11/20 00:55:56;;;;;;;29.85;15.43;;;;;;;-1.31;70.28;100520.09;4956644;28;20053;-69
2022/11/20 00:58:24;;;;;;;31.13;14.80;;;;;;;-1.10;70.14;100527.66;4974202;28;20388;-70
2022/11/20 01:00:51;;;;;;;24.40;13.85;;;;;;;-1.19;70.30;100529.91;4975117;28;20050;-71
2022/11/20 01:03:18;;;;;;;26.85;14.95;;;;;;;-1.48;70.74;100536.00;4973975;28;20495;-69
2022/11/20 01:05:52;;;;;;;25.17;14.75;;;;;;;-1.21;70.03;100536.19;4974549;28;24574;-70
2022/11/20 01:08:18;;;;;;;29.02;14.52;;;;;;;-1.13;70.29;100528.69;4974688;28;20050;-70
2022/11/20 01:10:45;;;;;;;24.50;14.52;;;;;;;-1.09;69.80;100532.84;4973894;28;20047;-71
2022/11/20 01:16:02;;;;;;;29.90;14.85;;;;;;;-0.99;69.20;100535.78;4974069;28;20043;-71
2022/11/20 01:18:28;;;;;;;27.38;14.48;;;;;;;-0.87;68.89;100531.59;4975065;28;20054;-71
2022/11/20 01:20:55;;;;;;;24.80;14.20;;;;;;;-1.22;69.76;100521.34;4973436;28;20133;-70
2022/11/20 01:23:21;;;;;;;24.15;13.98;;;;;;;-1.34;69.72;100525.50;4973808;28;20507;-71
2022/11/20 01:25:48;;;;;;;27.45;13.88;;;;;;;-1.27;69.82;100518.13;4975233;28;20053;-70
2022/11/20 01:28:15;;;;;;;27.25;13.73;;;;;;;-1.32;70.18;100522.81;4979606;28;20110;-70
2022/11/20 01:30:41;;;;;;;25.27;14.95;;;;;;;-1.32;70.14;100517.56;4973902;28;20448;-71
2022/11/20 01:33:07;;;;;;;26.15;15.00;;;;;;;-1.27;69.92;100513.69;4974069;28;20421;-70
2022/11/20 01:35:34;;;;;;;28.02;13.90;;;;;;;-0.98;69.05;100519.06;4973999;28;20052;-71
2022/11/20 01:38:00;;;;;;;24.67;13.25;;;;;;;-1.29;70.15;100517.38;4974314;28;20046;-70
2022/11/20 01:40:27;;;;;;;32.00;14.98;;;;;;;-1.04;69.23;100520.25;4973802;28;20051;-70
2022/11/20 01:43:23;;;;;;;28.00;15.13;;;;;;;-1.00;69.25;100519.13;4974785;28;20066;-70
2022/11/20 01:46:19;;;;;;;26.98;14.95;;;;;;;-1.15;69.25;100515.63;4974044;28;20047;-70
2022/11/20 01:48:55;;;;;;;23.88;14.13;;;;;;;-1.30;70.03;100520.91;4973245;28;20043;-69
2022/11/20 01:51:43;;;;;;;26.02;13.93;;;;;;;-1.38;69.79;100514.31;4973651;28;20463;-70
2022/11/20 01:54:16;;;;;;;23.08;13.93;;;;;;;-1.44;70.12;100513.81;4975245;28;20047;-70
2022/11/20 01:56:46;;;;;;;24.95;13.82;;;;;;;-1.36;69.66;100516.03;4956335;28;20051;-70
2022/11/20 01:59:17;;;;;;;29.35;15.15;;;;;;;-1.41;69.80;100517.13;4955893;28;20055;-70
2022/11/20 02:01:44;;;;;;;24.50;14.73;;;;;;;-1.36;69.81;100501.09;4947559;28;20089;-70
2022/11/20 02:04:13;;;;;;;26.77;15.05;;;;;;;-1.62;69.95;100513.09;4954145;28;20114;-70
2022/11/20 02:07:23;;;;;;;27.05;14.85;;;;;;;-1.44;69.25;100516.47;4954282;28;20519;-70
2022/11/20 02:09:51;;;;;;;27.30;14.55;;;;;;;-1.79;70.31;100502.69;4952916;28;20109;-70
2022/11/20 02:15:09;;;;;;;30.27;15.18;;;;;;;-1.57;69.46;100497.91;4953149;28;20051;-70
2022/11/20 02:17:35;;;;;;;26.15;13.90;;;;;;;-1.64;69.38;100493.94;4959526;28;20047;-71
2022/11/20 02:20:04;;;;;;;29.27;15.65;;;;;;;-1.74;69.74;100500.66;4954004;28;20051;-71
2022/11/20 02:22:38;;;;;;;31.25;14.82;;;;;;;-1.57;69.46;100494.44;4954241;28;20047;-71
2022/11/20 02:25:07;;;;;;;27.83;14.75;;;;;;;-1.74;69.68;100496.25;4953842;28;20051;-70
2022/11/20 02:27:34;;;;;;;24.63;14.65;;;;;;;-1.83;69.59;100488.03;4953884;28;20043;-70
2022/11/20 02:30:03;;;;;;;26.75;14.70;;;;;;;-1.80;69.52;100495.75;4948149;28;20051;-70
2022/11/20 02:32:32;;;;;;;24.90;14.25;;;;;;;-1.87;69.41;100488.19;4952074;28;20081;-70
2022/11/20 02:35:26;;;;;;;25.55;14.45;;;;;;;-1.83;69.77;100488.03;4953310;28;20118;-70
2022/11/20 02:37:55;;;;;;;28.10;14.98;;;;;;;-2.03;69.98;100487.34;4952320;28;20051;-70
2022/11/20 02:40:22;;;;;;;31.20;15.55;;;;;;;-1.94;69.72;100484.22;4952320;28;20063;-70
2022/11/20 02:42:56;;;;;;;26.48;14.85;;;;;;;-1.97;70.15;100483.53;4952654;28;20458;-70
2022/11/20 02:45:23;;;;;;;25.33;15.85;;;;;;;-1.95;69.41;100482.53;4953313;28;20062;-69
2022/11/20 02:47:51;;;;;;;25.95;14.30;;;;;;;-1.89;69.88;100482.19;4949970;28;20049;-70
2022/11/20 02:50:17;;;;;;;29.10;15.52;;;;;;;-1.82;69.74;100490.53;4954547;28;20047;-70
2022/11/20 02:52:44;;;;;;;25.50;15.18;;;;;;;-1.82;69.06;100490.53;4952456;28;20057;-70
2022/11/20 02:55:10;;;;;;;28.73;16.10;;;;;;;-1.83;69.30;100486.22;4957485;28;20053;-70
2022/11/20 02:57:37;;;;;;;27.77;15.43;;;;;;;-1.67;68.56;100488.84;4973444;28;20054;-71
2022/11/20 03:00:04;;;;;;;27.77;14.70;;;;;;;-1.51;68.39;100476.50;4972553;28;20051;-70
2022/11/20 03:02:31;;;;;;;33.03;17.05;;;;;;;-1.63;68.24;100477.22;4973322;28;20047;-71
2022/11/20 03:04:58;;;;;;;25.48;14.50;;;;;;;-1.92;69.26;100484.97;4969549;28;20042;-70
2022/11/20 03:07:25;;;;;;;27.52;15.95;;;;;;;-1.72;68.82;100478.56;4972060;28;20060;-71
2022/11/20 03:09:51;;;;;;;28.13;14.68;;;;;;;-1.81;68.63;100483.53;4973499;28;20081;-71
2022/11/20 03:12:18;;;;;;;25.30;15.25;;;;;;;-1.53;67.94;100481.00;4973524;28;20070;-70
2022/11/20 03:14:44;;;;;;;30.48;15.07;;;;;;;-1.32;67.33;100480.72;4974178;28;20049;-70
2022/11/20 03:17:18;;;;;;;28.60;14.93;;;;;;;-1.56;68.23;100472.44;4973167;28;20071;-70
2022/11/20 03:19:44;;;;;;;29.58;16.25;;;;;;;-1.52;68.29;100476.59;4973044;28;20402;-70
2022/11/20 03:22:11;;;;;;;31.27;15.90;;;;;;;-1.72;68.58;100473.31;4973228;28;20046;-70
2022/11/20 03:24:37;;;;;;;30.70;15.50;;;;;;;-1.91;69.20;100473.53;4972844;28;20053;-70
2022/11/20 03:27:04;;;;;;;27.50;15.35;;;;;;;-2.08;69.24;100465.72;4973316;28;20054;-70
2022/11/20 03:29:30;;;;;;;28.90;15.93;;;;;;;-1.94;69.00;100470.22;4972283;28;20049;-70
2022/11/20 03:31:56;;;;;;;31.77;16.77;;;;;;;-1.78;68.79;100459.66;4973098;28;20059;-69
2022/11/20 03:34:23;;;;;;;30.65;15.57;;;;;;;-1.96;68.99;100461.56;4973206;28;20057;-70
2022/11/20 03:36:50;;;;;;;29.88;16.65;;;;;;;-1.97;69.28;100459.88;4974511;28;20058;-70
2022/11/20 03:39:16;;;;;;;28.67;16.48;;;;;;;-2.02;69.07;100461.94;4973815;28;20057;-69
2022/11/20 03:41:43;;;;;;;30.75;16.73;;;;;;;-1.99;69.11;100465.22;4974647;28;20050;-70
2022/11/20 03:44:11;;;;;;;30.80;16.63;;;;;;;-1.77;68.53;100462.22;4974559;28;20057;-70
2022/11/20 03:46:38;;;;;;;26.98;15.55;;;;;;;-1.94;68.54;100460.53;4975485;28;20053;-71
2022/11/20 03:49:04;;;;;;;29.27;16.45;;;;;;;-1.95;69.13;100458.88;4976093;28;20050;-69
2022/11/20 03:51:33;;;;;;;32.15;18.50;;;;;;;-2.18;69.93;100456.66;4976053;28;20053;-70
2022/11/20 03:54:03;;;;;;;30.38;15.40;;;;;;;-2.00;68.91;100466.16;4976200;28;20051;-70
2022/11/20 03:56:32;;;;;;;27.92;15.80;;;;;;;-1.98;69.41;100466.91;4959410;28;20058;-70
2022/11/20 03:58:58;;;;;;;27.95;15.82;;;;;;;-1.87;68.59;100467.16;4952518;28;20134;-70
2022/11/20 04:01:28;;;;;;;26.83;15.35;;;;;;;-1.94;68.50;100462.34;4956198;28;20111;-70
2022/11/20 04:03:56;;;;;;;30.50;15.88;;;;;;;-1.95;68.74;100464.13;4956442;28;20058;-68
2022/11/20 04:06:25;;;;;;;29.23;16.70;;;;;;;-2.00;68.62;100463.50;4956001;28;20431;-70
2022/11/20 04:08:55;;;;;;;32.70;16.40;;;;;;;-1.89;68.15;100461.16;4953455;28;20055;-70
2022/11/20 04:11:24;;;;;;;33.80;16.70;;;;;;;-1.97;68.36;100458.09;4955913;28;20055;-70
2022/11/20 04:13:56;;;;;;;32.03;16.25;;;;;;;-1.98;68.65;100459.03;4955881;28;20043;-71
2022/11/20 04:16:24;;;;;;;35.00;17.55;;;;;;;-2.17;68.98;100453.09;4955302;28;20055;-70
2022/11/20 04:18:56;;;;;;;34.40;16.83;;;;;;;-2.21;69.22;100449.78;4956086;28;20050;-70
2022/11/20 04:21:23;;;;;;;29.25;16.23;;;;;;;-2.20;69.36;100455.88;4959894;28;20055;-70
2022/11/20 04:23:51;;;;;;;29.10;15.88;;;;;;;-2.12;69.35;100456.34;4959288;28;20047;-68
2022/11/20 04:26:17;;;;;;;30.77;16.77;;;;;;;-2.17;69.44;100456.56;4958255;28;20062;-69
2022/11/20 04:28:43;;;;;;;28.45;16.52;;;;;;;-2.08;68.41;100452.59;4957786;28;20047;-70
2022/11/20 04:31:16;;;;;;;29.60;16.88;;;;;;;-1.97;68.45;100458.09;4956998;28;20054;-68
2022/11/20 04:33:43;;;;;;;28.20;16.00;;;;;;;-2.22;69.33;100455.16;4956641;28;20051;-68
2022/11/20 04:36:16;;;;;;;31.20;15.90;;;;;;;-2.03;68.22;100453.16;4957998;28;20051;-70
2022/11/20 04:38:43;;;;;;;31.60;16.52;;;;;;;-2.34;69.56;100457.53;4956401;28;20051;-69
2022/11/20 04:41:20;;;;;;;31.73;16.45;;;;;;;-2.28;69.36;100451.06;4957080;28;20047;-71
2022/11/20 04:43:49;;;;;;;32.33;16.55;;;;;;;-1.98;68.21;100455.56;4964020;28;20046;-68
2022/11/20 04:46:20;;;;;;;31.60;17.00;;;;;;;-1.92;68.60;100452.59;4957085;28;20053;-68
2022/11/20 04:48:47;;;;;;;35.63;15.75;;;;;;;-1.95;68.14;100461.50;4956814;28;20051;-67
2022/11/20 04:51:14;;;;;;;29.10;16.95;;;;;;;-2.08;68.34;100455.22;4957903;28;20055;-70
2022/11/20 04:53:41;;;;;;;29.60;17.02;;;;;;;-1.90;68.46;100453.34;4957619;28;20060;-70
2022/11/20 04:56:10;;;;;;;28.08;16.27;;;;;;;-1.76;67.74;100456.03;4969991;28;20046;-69
2022/11/20 04:58:38;;;;;;;33.38;16.52;;;;;;;-1.98;67.92;100459.03;4977733;28;20070;-70
2022/11/20 05:01:08;;;;;;;30.25;16.45;;;;;;;-2.05;68.36;100439.28;4977432;28;20051;-68
2022/11/20 05:03:35;;;;;;;35.20;17.20;;;;;;;-2.06;69.23;100436.72;4976868;28;20055;-69
2022/11/20 05:06:09;;;;;;;31.95;17.20;;;;;;;-2.29;69.49;100440.66;4976575;28;20046;-69
2022/11/20 05:08:35;;;;;;;28.95;17.42;;;;;;;-2.01;69.25;100438.16;4977517;28;20055;-69
2022/11/20 05:11:07;;;;;;;30.50;17.25;;;;;;;-2.07;69.75;100433.25;4976514;28;20058;-69
2022/11/20 05:13:34;;;;;;;27.63;16.25;;;;;;;-2.04;69.19;100425.19;4976432;28;20046;-69
2022/11/20 05:16:05;;;;;;;31.17;16.85;;;;;;;-1.99;68.88;100423.16;4976410;28;20046;-69
2022/11/20 05:18:33;;;;;;;30.70;16.73;;;;;;;-1.95;68.69;100419.44;4977324;28;20411;-69
2022/11/20 05:21:00;;;;;;;36.15;17.73;;;;;;;-1.80;68.23;100416.84;4976892;28;20051;-69
2022/11/20 05:23:27;;;;;;;30.88;16.65;;;;;;;-1.95;69.19;100413.31;4977343;28;20496;-69
2022/11/20 05:25:55;;;;;;;32.45;17.63;;;;;;;-1.84;68.74;100412.72;4976639;28;20051;-69
2022/11/20 05:28:25;;;;;;;37.40;17.30;;;;;;;-1.99;69.05;100412.66;4976086;28;20050;-69
2022/11/20 05:30:52;;;;;;;31.98;17.35;;;;;;;-1.84;69.06;100413.56;4975097;28;20047;-69
2022/11/20 05:33:18;;;;;;;34.83;17.73;;;;;;;-1.77;68.63;100414.88;4975921;28;20057;-69
2022/11/20 05:35:45;;;;;;;30.75;18.17;;;;;;;-1.98;69.45;100413.50;4976602;28;20043;-69
2022/11/20 05:38:11;;;;;;;32.67;18.13;;;;;;;-1.79;69.36;100415.91;4976398;28;20054;-70
2022/11/20 05:40:38;;;;;;;31.20;17.73;;;;;;;-1.89;69.40;100407.69;4978014;28;20043;-69
2022/11/20 05:43:04;;;;;;;30.40;16.80;;;;;;;-1.90;69.76;100411.25;4976476;28;20056;-69
2022/11/20 05:45:31;;;;;;;31.90;18.08;;;;;;;-1.75;69.46;100413.03;4975422;28;20538;-70
2022/11/20 05:47:59;;;;;;;28.75;15.60;;;;;;;-1.84;69.56;100410.09;4982102;28;20052;-69
2022/11/20 05:50:29;;;;;;;31.88;17.13;;;;;;;-1.83;69.37;100403.88;4975372;28;20114;-69
2022/11/20 05:52:59;;;;;;;34.95;19.17;;;;;;;-2.21;70.08;100409.53;4971580;28;20046;-69
2022/11/20 05:55:27;;;;;;;32.63;17.35;;;;;;;-2.30;70.15;100408.28;4969505;28;20062;-70
2022/11/20 05:57:54;;;;;;;32.15;18.60;;;;;;;-2.07;69.67;100409.59;4956038;28;20057;-70
2022/11/20 06:00:21;;;;;;;34.53;18.45;;;;;;;-1.94;68.71;100405.34;4957117;28;20059;-69
2022/11/20 06:02:48;;;;;;;34.20;18.17;;;;;;;-2.22;70.24;100408.69;4956501;28;20051;-69
2022/11/20 06:05:14;;;;;;;31.42;17.25;;;;;;;-2.15;70.01;100409.19;4956600;28;20062;-69
2022/11/20 06:07:41;;;;;;;29.92;17.13;;;;;;;-2.20;70.36;100411.22;4957892;28;20488;-69
2022/11/20 06:10:08;;;;;;;30.35;17.20;;;;;;;-2.13;69.92;100404.69;4956744;28;20047;-69
2022/11/20 06:12:34;;;;;;;31.52;18.05;;;;;;;-2.29;70.18;100406.50;4956897;28;20052;-70
2022/11/20 06:15:01;;;;;;;31.05;18.48;;;;;;;-2.26;70.29;100406.31;4952305;28;20054;-69
2022/11/20 06:17:27;;;;;;;32.13;18.02;;;;;;;-2.16;70.05;100405.72;4956974;28;20555;-69
2022/11/20 06:19:54;;;;;;;33.45;18.17;;;;;;;-2.14;70.01;100393.31;4954970;28;20058;-69
2022/11/20 06:22:20;;;;;;;39.10;18.40;;;;;;;-2.23;70.00;100408.78;4956020;28;20047;-70
2022/11/20 06:24:47;;;;;;;34.08;18.60;;;;;;;-2.33;70.09;100398.78;4955321;28;20047;-69
2022/11/20 06:27:14;;;;;;;31.08;16.50;;;;;;;-2.29;70.43;100404.72;4955763;28;20059;-70
2022/11/20 06:29:40;;;;;;;32.00;17.50;;;;;;;-2.17;70.27;100408.41;4956536;28;20495;-70
2022/11/20 06:32:07;;;;;;;32.38;17.95;;;;;;;-2.08;69.31;100401.81;4956746;28;20047;-69
2022/11/20 06:34:33;;;;;;;33.15;18.15;;;;;;;-2.18;69.84;100402.31;4956984;28;20047;-69
2022/11/20 06:36:59;;;;;;;36.85;17.95;;;;;;;-2.10;69.82;100412.38;4956942;28;20047;-70
2022/11/20 06:39:26;;;;;;;35.85;18.40;;;;;;;-2.06;69.74;100405.19;4955968;28;20091;-69
2022/11/20 06:41:53;;;;;;;35.63;17.85;;;;;;;-2.30;69.54;100408.28;4956221;28;20051;-69
2022/11/20 06:44:24;;;;;;;;;;;;;;;-2.30;70.20;100407.41;4950053;28;20051;-69
2022/11/20 06:46:50;;;;;;;37.50;18.65;;;;;;;-2.34;69.81;100406.72;4958881;28;19927;-69
2022/11/20 06:49:17;;;;;;;35.42;17.73;;;;;;;-2.48;70.45;100389.09;4957918;28;20047;-70
2022/11/20 06:51:43;;;;;;;36.55;19.25;;;;;;;-2.27;70.32;100399.34;4958470;28;20393;-70
2022/11/20 06:54:10;;;;;;;34.72;18.98;;;;;;;-2.47;70.82;100390.81;4959066;28;20054;-69
2022/11/20 06:56:36;;;;;;;30.42;18.30;;;;;;;-2.39;70.51;100393.84;4973890;28;20042;-69
2022/11/20 06:59:07;;;;;;;33.33;18.05;;;;;;;-2.65;71.05;100383.94;4977082;28;20194;-69
2022/11/20 07:01:34;;;;;;;40.33;20.08;;;;;;;-2.67;70.99;100388.44;4977244;28;20510;-69
2022/11/20 07:04:01;;;;;;;31.58;17.35;;;;;;;-2.59;71.08;100387.06;4978016;28;20074;-69
2022/11/20 07:06:28;;;;;;;39.50;17.83;;;;;;;-2.54;70.52;100389.47;4977129;28;20047;-69
2022/11/20 07:08:54;;;;;;;35.72;19.05;;;;;;;-2.53;70.71;100393.78;4976971;28;20047;-69
2022/11/20 07:11:21;;;;;;;36.08;18.48;;;;;;;-2.66;71.07;100396.22;4976771;28;20049;-70
2022/11/20 07:13:47;;;;;;;40.03;19.08;;;;;;;-2.66;70.74;100390.13;4974840;28;20050;-70
2022/11/20 07:16:14;;;;;;;33.38;18.58;;;;;;;-2.50;70.51;100387.50;4975711;28;20054;-70
2022/11/20 07:18:40;;;;;;;34.53;18.92;;;;;;;-2.80;71.26;100393.50;4975609;28;20399;-69
2022/11/20 07:21:14;;;;;;;34.35;18.90;;;;;;;-2.56;70.95;100386.06;4974523;28;20046;-70
2022/11/20 07:23:41;;;;;;;33.72;17.92;;;;;;;-2.63;70.21;100390.81;4974253;28;20047;-70
2022/11/20 07:26:10;;;;;;;34.72;18.58;;;;;;;-2.39;69.65;100393.00;4965306;28;20514;-69
2022/11/20 07:28:37;;;;;;;31.83;17.70;;;;;;;-2.32;69.45;100394.38;4977592;28;20483;-69
2022/11/20 07:31:04;;;;;;;36.90;18.60;;;;;;;-2.33;69.37;100397.94;4976691;28;20057;-69
2022/11/20 07:33:31;;;;;;;36.88;18.20;;;;;;;-2.22;70.02;100397.34;4977394;28;20061;-70
2022/11/20 07:36:01;;;;;;;33.88;18.92;;;;;;;-2.08;68.55;100396.56;4970946;28;20042;-69
2022/11/20 07:38:27;;;;;;;35.40;17.02;;;;;;;-2.34;69.09;100391.84;4977005;28;20047;-69
2022/11/20 07:40:57;;;;;;;34.47;17.73;;;;;;;-2.31;69.20;100398.69;4978567;28;20423;-69
2022/11/20 07:43:25;;;;;;;30.98;17.13;;;;;;;-2.29;69.08;100403.88;4976153;28;20063;-69
2022/11/20 07:45:51;;;;;;;32.58;17.98;;;;;;;-2.19;68.48;100395.38;4975379;28;20043;-69
2022/11/20 07:48:18;;;;;;;33.80;18.23;;;;;;;-2.00;68.06;100399.59;4975973;28;20463;-69
2022/11/20 07:50:44;;;;;;;35.35;18.65;;;;;;;-2.26;68.41;100398.44;4979767;28;20062;-69
2022/11/20 07:53:12;;;;;;;34.55;18.58;;;;;;;-2.38;68.86;100385.03;4978103;28;20047;-68
2022/11/20 07:55:38;;;;;;;33.83;18.58;;;;;;;-2.45;69.02;100382.84;4972780;28;20130;-67
2022/11/20 07:58:05;;;;;;;37.67;18.52;;;;;;;-2.25;68.36;100384.38;4962861;28;21225;-69
2022/11/20 08:00:31;;;;;;;34.50;18.40;;;;;;;-2.31;67.79;100387.31;4961899;28;20047;-70
2022/11/20 08:02:58;;;;;;;33.42;18.98;;;;;;;-2.34;68.18;100394.47;4962227;28;20058;-69
2022/11/20 08:05:24;;;;;;;33.72;18.02;;;;;;;-2.21;67.86;100380.63;4962461;28;20053;-69
2022/11/20 08:07:51;;;;;;;34.17;18.08;;;;;;;-2.00;67.94;100379.38;4961335;28;20069;-70
2022/11/20 08:10:17;;;;;;;34.88;18.05;;;;;;;-2.01;67.99;100372.44;4959790;28;20393;-70
2022/11/20 08:15:35;;;;;;;32.22;17.80;;;;;;;-2.13;67.19;100374.00;4956536;28;20059;-70
2022/11/20 08:18:12;;;;;;;34.13;18.35;;;;;;;-1.93;67.38;100369.38;4968047;28;20054;-70
2022/11/20 08:21:03;;;;;;;37.95;19.42;;;;;;;-2.28;68.47;100374.88;4958565;28;20082;-69
2022/11/20 08:23:30;;;;;;;44.70;19.17;;;;;;;-2.10;68.28;100379.09;4959414;28;20051;-70
2022/11/20 08:25:57;;;;;;;35.15;18.70;;;;;;;-2.14;68.40;100374.94;4959822;28;20556;-69
2022/11/20 08:28:23;;;;;;;33.03;17.30;;;;;;;-2.32;68.42;100373.34;4955941;28;20058;-69
2022/11/20 08:30:50;;;;;;;36.55;17.35;;;;;;;-1.91;67.75;100381.50;4960978;28;20047;-70
2022/11/20 08:33:17;;;;;;;37.83;19.85;;;;;;;-1.76;67.60;100377.13;4960476;28;20055;-69
2022/11/20 08:35:44;;;;;;;34.35;18.05;;;;;;;-2.07;68.03;100374.59;4959772;28;20083;-69
2022/11/20 08:38:10;;;;;;;31.77;17.77;;;;;;;-1.83;67.04;100370.53;4957528;28;20107;-70
2022/11/20 08:40:37;;;;;;;37.30;18.10;;;;;;;-1.91;67.73;100371.00;4960475;28;20423;-70
2022/11/20 08:43:04;;;;;;;35.47;18.27;;;;;;;-2.13;68.03;100368.75;4960543;28;20055;-70
2022/11/20 08:45:30;;;;;;;36.05;18.52;;;;;;;-1.94;67.83;100371.16;4948322;28;20051;-71
2022/11/20 08:48:03;;;;;;;43.13;19.08;;;;;;;-1.99;68.21;100362.72;4960916;28;20530;-68
2022/11/20 08:50:31;;;;;;;36.22;18.50;;;;;;;-1.98;67.84;100366.19;4961583;28;20074;-68
2022/11/20 08:53:06;;;;;;;35.67;19.77;;;;;;;-1.94;67.79;100360.66;4961279;28;20455;-70
2022/11/20 08:55:35;;;;;;;43.67;19.15;;;;;;;-2.15;68.82;100364.50;4966648;28;20054;-70
2022/11/20 08:58:04;;;;;;;36.47;18.65;;;;;;;-1.99;68.49;100370.59;4979140;28;20047;-70
2022/11/20 09:00:32;;;;;;;35.60;18.00;;;;;;;-1.92;68.39;100368.47;4979920;28;20061;-71
2022/11/20 09:03:00;;;;;;;33.40;18.42;;;;;;;-2.17;68.68;100359.31;4978110;28;20049;-70
2022/11/20 09:05:27;;;;;;;34.20;18.20;;;;;;;-2.13;68.75;100368.75;4978655;28;20506;-72
2022/11/20 09:07:57;;;;;;;34.33;18.77;;;;;;;-1.99;68.04;100361.84;4978465;28;20383;-69
2022/11/20 09:10:25;;;;;;;34.13;17.90;;;;;;;-1.87;67.76;100372.50;4975464;28;20406;-67
2022/11/20 09:12:52;;;;;;;32.08;18.40;;;;;;;-2.04;68.42;100364.75;4975156;28;20053;-67
2022/11/20 09:15:19;;;;;;;36.10;18.30;;;;;;;-2.20;68.96;100363.91;4975986;28;20047;-69
2022/11/20 09:17:57;;;;;;;32.20;18.08;;;;;;;-1.92;68.28;100364.03;4970559;28;20046;-69
2022/11/20 09:20:25;;;;;;;31.48;18.20;;;;;;;-1.78;67.56;100363.25;4974874;28;20117;-69
2022/11/20 09:22:52;;;;;;;36.75;19.05;;;;;;;-1.93;67.58;100369.38;4975060;28;20057;-67
2022/11/20 09:25:18;;;;;;;36.92;19.20;;;;;;;-1.94;67.63;100370.31;4975699;28;20058;-69
2022/11/20 09:27:45;;;;;;;36.25;18.65;;;;;;;-1.80;67.49;100369.53;4974997;28;20057;-69
2022/11/20 09:30:14;;;;;;;33.83;18.33;;;;;;;-1.72;67.72;100370.75;4974054;28;20082;-69
2022/11/20 09:32:42;;;;;;;33.67;17.88;;;;;;;-1.79;67.58;100372.03;4974253;28;20078;-70
2022/11/20 09:35:08;;;;;;;32.92;17.77;;;;;;;-1.72;67.16;100376.00;4974799;28;20047;-70
2022/11/20 09:37:35;;;;;;;33.35;17.83;;;;;;;-2.05;67.87;100370.09;4974611;28;20105;-69
2022/11/20 09:40:01;;;;;;;34.75;18.85;;;;;;;-2.06;67.90;100377.16;4966179;28;20045;-70
2022/11/20 09:42:51;;;;;;;31.15;17.75;;;;;;;-1.70;67.55;100370.69;4974335;28;20113;-69
2022/11/20 09:45:28;;;;;;;32.63;18.08;;;;;;;-1.73;67.62;100366.44;4974734;28;20058;-69
2022/11/20 09:48:22;;;;;;;36.83;18.60;;;;;;;-1.97;67.87;100367.88;4974515;28;20051;-70
2022/11/20 09:51:01;;;;;;;31.13;17.38;;;;;;;-2.05;67.80;100363.06;4973834;28;20058;-68
2022/11/20 09:53:44;;;;;;;34.75;17.30;;;;;;;-1.82;66.88;100355.59;4974903;28;20514;-69
2022/11/20 09:56:12;;;;;;;29.35;17.35;;;;;;;-1.81;66.93;100362.56;4961845;28;20061;-70
2022/11/20 09:58:53;;;;;;;34.00;19.42;;;;;;;-1.80;67.13;100364.25;4948433;28;20046;-67
2022/11/20 10:01:25;;;;;;;30.15;17.88;;;;;;;-1.74;66.65;100353.38;4965727;28;20047;-69
2022/11/20 10:04:03;;;;;;;34.22;19.13;;;;;;;-1.81;67.25;100363.41;4954234;28;20134;-69
2022/11/20 10:06:39;;;;;;;30.13;18.00;;;;;;;-1.86;66.99;100350.53;4954290;28;20039;-70
2022/11/20 10:09:15;;;;;;;31.85;17.50;;;;;;;-1.76;67.62;100347.34;4954961;28;20057;-69
2022/11/20 10:12:21;;;;;;;31.08;17.05;;;;;;;-1.53;66.40;100357.38;4954103;28;20058;-69
2022/11/20 10:15:06;;;;;;;32.05;17.70;;;;;;;-1.55;65.76;100350.50;4953613;28;20154;-68
2022/11/20 10:17:50;;;;;;;32.30;18.30;;;;;;;-1.83;66.96;100351.28;4953848;28;20365;-70
2022/11/20 10:20:32;;;;;;;31.50;17.52;;;;;;;-1.79;67.22;100348.38;4955395;28;20100;-70
2022/11/20 10:23:17;;;;;;;;;;;;;;;-1.66;66.86;100346.72;4954426;28;20043;-69
2022/11/20 10:25:57;;;;;;;;;;;;;;;-1.84;67.61;100339.09;4953655;28;19922;-69
2022/11/20 10:28:34;;;;;;;31.17;16.95;;;;;;;-1.44;66.84;100340.16;4954822;28;19929;-70
2022/11/20 10:31:08;;;;;;;28.33;17.00;;;;;;;-1.60;66.78;100342.06;4953178;28;20043;-70
2022/11/20 10:33:42;;;;;;;37.25;18.38;;;;;;;-1.36;66.27;100343.22;4954431;28;20066;-69
2022/11/20 10:36:50;;;;;;;29.88;17.10;;;;;;;-1.38;67.09;100334.53;4953748;28;20047;-70
2022/11/20 10:39:21;;;;;;;32.63;16.23;;;;;;;-1.66;67.14;100333.56;4954556;28;20446;-68
2022/11/20 10:41:51;;;;;;;33.50;16.90;;;;;;;-1.54;66.96;100332.00;4954759;28;20047;-69
2022/11/20 10:45:00;;;;;;;30.20;17.63;;;;;;;-1.34;66.70;100332.56;4954123;28;20051;-70
2022/11/20 10:47:16;;;;;;;32.85;16.73;;;;;;;-1.43;66.37;100319.03;4946245;28;20484;-69
2022/11/20 10:49:49;;;;;;;29.27;17.55;;;;;;;-1.41;66.75;100318.94;4966615;28;20047;-70
2022/11/20 10:52:31;;;;;;;34.17;17.98;;;;;;;-1.11;65.88;100316.22;4953906;28;20058;-70
2022/11/20 10:54:57;;;;;;;;;;;;;;;-1.40;66.66;100316.22;4957766;28;20050;-70
2022/11/20 10:57:46;;;;;;;31.38;17.15;;;;;;;-0.83;65.09;100312.69;4974799;28;20290;-70
2022/11/20 11:00:13;;;;;;;30.70;17.38;;;;;;;-1.06;65.69;100310.66;4972897;28;20051;-69
2022/11/20 11:02:47;;;;;;;28.30;16.38;;;;;;;-0.81;64.90;100304.72;4972520;28;20083;-68
2022/11/20 11:05:20;;;;;;;29.00;17.45;;;;;;;-0.87;65.07;100307.72;4973320;28;20050;-70
2022/11/20 11:07:50;;;;;;;28.73;16.08;;;;;;;-1.02;65.15;100315.66;4973676;28;20051;-70
2022/11/20 11:10:38;;;;;;;25.02;15.27;;;;;;;-0.75;64.00;100313.03;4973286;28;20091;-70
2022/11/20 11:13:04;;;;;;;31.45;15.88;;;;;;;-0.70;64.39;100312.78;4973072;28;20070;-69
2022/11/20 11:15:39;;;;;;;27.60;15.30;;;;;;;-0.28;63.31;100313.56;4975699;28;20056;-68
2022/11/20 11:18:10;;;;;;;27.35;15.45;;;;;;;-0.25;63.35;100310.75;4971195;28;20046;-69
2022/11/20 11:20:37;;;;;;;18.58;11.20;;;;;;;0.08;62.32;100304.16;4972079;28;20043;-68
2022/11/20 11:23:05;;;;;;;26.73;14.90;;;;;;;0.22;61.48;100310.19;4973299;28;20514;-70
2022/11/20 11:25:36;;;;;;;25.75;15.10;;;;;;;0.22;61.73;100302.28;4967708;28;20042;-69
2022/11/20 11:28:17;;;;;;;27.48;15.52;;;;;;;0.46;60.72;100299.75;4971994;28;20046;-70
2022/11/20 11:30:45;;;;;;;25.55;14.18;;;;;;;0.39;60.35;100300.28;4971152;28;20039;-70